Nearby METAR Reports

 

KORH - Worcester, Massachusetts, USA
Distance from station: NW 4mi, 7km
Updated: Mon, 21-Jan-2019 1:54pm EST
Light snow, Overcast
Light snow, Overcast
 Wind from WNW
Wind: WNW 23 mph , 37 km/h, Gust: 36 mph , 57 km/h
Temperature: -2°F , -19°C
Wind Chill: -26°F , -32°C
Dew Point: -11°F , -24°C
Humidity: 65%
Barometer: 29.73 inHg , 1006.8 hPa
Summary: Light Snow
Clouds: Overcast
Visibility: 1 3/4 miles , 2.8 km
Cloud details: Mostly cloudy 2800 ft
Overcast 3500 ft
2019/01/21 18:54 KORH 211854Z 29020G31KT 1 3/4SM -SN BKN028 OVC035 M19/M24 A2973 RMK AO2 PK WND 29031/1843 VIS 1 1/2V3 UPE18SNB18 SLP094 P0000 T11891244
KBOS - Boston, Massachusetts, USA
Distance from station: ENE 42mi, 68km
Updated: Mon, 21-Jan-2019 1:54pm EST
Mostly cloudy
Mostly cloudy
 Wind from W
Wind: W 20 mph , 31 km/h, Gust: 31 mph , 50 km/h
Temperature: 7°F , -14°C
Wind Chill: -13°F , -25°C
Dew Point: -6°F , -21°C
Humidity: 56%
Barometer: 29.80 inHg , 1009.1 hPa
Clouds: Mostly cloudy
Visibility: 10 miles , 16 km
Cloud details: Mostly cloudy 3600 ft
Mostly cloudy 11000 ft
Mostly cloudy 20000 ft
2019/01/21 18:54 KBOS 211854Z 28017G27KT 10SM BKN036 BKN110 BKN200 M14/M21 A2980 RMK AO2 PK WND 29027/1847 SLP089 T11391211
 
KCQX - Chatham, Massachusetts, USA
Distance from station: SE 102mi, 164km
Updated: Mon, 21-Jan-2019 1:52pm EST
Light snow, Overcast
Light snow, Overcast
 Wind from W
Wind: W 9 mph , 15 km/h, Gust: 17 mph , 28 km/h
Temperature: 9°F , -13°C
Wind Chill: -4°F , -20°C
Barometer: 29.77 inHg , 1008.1 hPa
Summary: Light Snow
Clouds: Overcast
Visibility: 4 miles , 6 km
Cloud details: Overcast 3100 ft
2019/01/21 18:52 KCQX 211852Z AUTO 28008G15KT 240V320 4SM -SN OVC031 M13/ A2977 RMK AO2 SNB43 SLP084 P0000 T1133
KMVY - Marthas Vineyard, Massachusetts, USA
Distance from station: SE 84mi, 135km
Updated: Mon, 21-Jan-2019 1:53pm EST
Light snow, Overcast
Light snow, Overcast
 Wind from NW
Wind: NW 18 mph , 30 km/h, Gust: 25 mph , 41 km/h
Temperature: 7°F , -14°C
Wind Chill: -12°F , -24°C
Dew Point: -2°F , -19°C
Humidity: 66%
Barometer: 29.80 inHg , 1009.1 hPa
Summary: Light Snow
Clouds: Overcast
Visibility: 4 miles , 6 km
Cloud details: Mostly cloudy 2600 ft
Overcast 3000 ft
2019/01/21 18:53 KMVY 211853Z 31016G22KT 4SM -SN BKN026 OVC030 M14/M19 A2980 RMK AO2 UPB1756E51SNB29E41B51 SLP091 P0000 T11441194
 
KPVC - Provincetown, Massachusetts, USA
Distance from station: NNW 85mi, 136km
Updated: Mon, 21-Jan-2019 1:56pm EST
Light snow, Freezing, Fog, Overcast
Light snow, Freezing, Fog, Overcast
 Wind from WNW
Wind: WNW 23 mph , 37 km/h, Gust: 30 mph , 48 km/h
Temperature: 7°F , -14°C
Wind Chill: -14°F , -26°C
Dew Point: 3°F , -16°C
Humidity: 85%
Barometer: 29.76 inHg , 1007.8 hPa
Summary: Light snow, Freezing, Fog
Clouds: Overcast
Visibility: 1/2 mile , 0.8 km
Cloud details: Overcast 1300 ft
2019/01/21 18:56 KPVC 211856Z AUTO 29020G26KT 1/2SM -SN FZFG OVC013 M14/M16 A2976 RMK AO2 PK WND 28031/1846 SLP078 P0000 T11391161 FZRANO
KAQW - Savoy, Massachusetts, USA
Distance from station: NNW 66mi, 106km
Updated: Mon, 21-Jan-2019 1:52pm EST
Mostly cloudy
Mostly cloudy
 Wind from W
Wind: W 16 mph , 26 km/h, Gust: 28 mph , 44 km/h
Temperature: -2°F , -19°C
Wind Chill: -23°F , -31°C
Dew Point: -15°F , -26°C
Humidity: 54%
Barometer: 29.93 inHg , 1013.5 hPa
Clouds: Mostly cloudy
Visibility: 10 miles , 16 km
Cloud details: Mostly cloudy 3800 ft
2019/01/21 18:52 KAQW 211852Z AUTO 27014G24KT 10SM BKN038 M19/M26 A2993 RMK AO2 UPB28E47SNE28 SLP155 P0000 T11891256
 
KIZG - Fryeburg, Maine, USA
Distance from station: NNE 133mi, 214km
Updated: Mon, 21-Jan-2019 1:54pm EST
Overcast
Overcast
 Wind from varies
Wind: varies 7 mph , 11 km/h
Temperature: 3°F , -16°C
Wind Chill: -9°F , -23°C
Dew Point: -15°F , -26°C
Humidity: 42%
Barometer: 29.70 inHg , 1005.8 hPa
Clouds: Overcast
Visibility: 10 miles , 16 km
Cloud details: Mostly cloudy 5000 ft
Overcast 9000 ft
2019/01/21 18:54 KIZG 211854Z AUTO VRB06KT 10SM BKN050 OVC090 M16/M26 A2970 RMK AO2 SLP071 T11561261 $
KMWN - Mt Washington, New Hampshire, USA
Distance from station: NNE 146mi, 234km
Updated: Mon, 21-Jan-2019 1:48pm EST
Freezing fog, Blowing, Snow, Overcast
Freezing fog, Blowing, Snow, Overcast
 Wind from WNW
Wind: WNW 51 mph , 81 km/h, Gust: 63 mph , 102 km/h
Temperature: -27°F , -33°C
Wind Chill: -70°F , -57°C
Dew Point: -27°F , -33°C
Humidity: 100%
Summary: Freezing fog, Blowing, Snow
Clouds: Overcast
Visibility: 1/8 mile , 0.2 km
Cloud details: Overcast 300 ft
2019/01/21 18:48 KMWN 211848Z 30044G55KT 1/8SM FZFG BLSN VV003 M33/M33 RMK SUN DMLY VSBL
 
KBML - Berlin, New Hampshire, USA
Distance from station: NNE 160mi, 257km
Updated: Mon, 21-Jan-2019 1:52pm EST
Light snow, Overcast
Light snow, Overcast
 Wind from W
Wind: W 8 mph , 13 km/h, Gust: 18 mph , 30 km/h
Temperature: -6°F , -21°C
Wind Chill: -21°F , -29°C
Dew Point: -13°F , -25°C
Humidity: 70%
Barometer: 29.70 inHg , 1005.8 hPa
Summary: Light Snow
Clouds: Overcast
Visibility: 3/4 mile , 1.2 km
Cloud details: Mostly cloudy 2200 ft
Overcast 3000 ft
2019/01/21 18:52 KBML 211852Z AUTO 28007G16KT 3/4SM -SN BKN022 OVC030 M21/M25 A2970 RMK AO2 SLP094 P0000 T12061250